sensor_id;sensor_type;location;lat;lon;timestamp;pressure;altitude;pressure_sealevel;temperature;humidity
75409;BME280;63979;55.644;37.734;2022-10-31T00:02:22;98541.44;;;1.31;58.76
75409;BME280;63979;55.644;37.734;2022-10-31T00:07:23;98543.38;;;1.44;59.09
75409;BME280;63979;55.644;37.734;2022-10-31T00:12:25;98535.50;;;1.27;58.61
75409;BME280;63979;55.644;37.734;2022-10-31T00:17:27;98479.56;;;1.08;58.83
75409;BME280;63979;55.644;37.734;2022-10-31T00:22:27;98517.06;;;1.44;58.25
75409;BME280;63979;55.644;37.734;2022-10-31T00:27:28;98514.19;;;1.49;58.56
75409;BME280;63979;55.644;37.734;2022-10-31T00:32:29;98519.28;;;1.52;57.97
75409;BME280;63979;55.644;37.734;2022-10-31T00:37:30;98499.97;;;1.53;57.66
75409;BME280;63979;55.644;37.734;2022-10-31T00:42:31;98495.28;;;1.42;57.55
75409;BME280;63979;55.644;37.734;2022-10-31T00:47:35;98500.63;;;1.41;57.62
75409;BME280;63979;55.644;37.734;2022-10-31T00:52:39;98499.34;;;1.48;57.93
75409;BME280;63979;55.644;37.734;2022-10-31T00:57:40;98500.06;;;1.34;58.20
75409;BME280;63979;55.644;37.734;2022-10-31T01:02:40;98495.47;;;1.55;57.76
75409;BME280;63979;55.644;37.734;2022-10-31T01:07:47;98485.88;;;1.54;57.43
75409;BME280;63979;55.644;37.734;2022-10-31T01:12:49;98492.75;;;1.56;57.53
75409;BME280;63979;55.644;37.734;2022-10-31T01:17:50;98476.38;;;1.51;57.53
75409;BME280;63979;55.644;37.734;2022-10-31T01:22:51;98447.31;;;1.37;57.56
75409;BME280;63979;55.644;37.734;2022-10-31T01:27:52;98498.63;;;1.62;57.76
75409;BME280;63979;55.644;37.734;2022-10-31T01:32:54;98494.28;;;1.61;57.80
75409;BME280;63979;55.644;37.734;2022-10-31T01:37:55;98494.03;;;1.49;58.74
75409;BME280;63979;55.644;37.734;2022-10-31T01:42:56;98498.94;;;1.55;59.60
75409;BME280;63979;55.644;37.734;2022-10-31T01:47:58;98495.38;;;1.56;60.06
75409;BME280;63979;55.644;37.734;2022-10-31T01:53:02;98507.00;;;1.52;61.27
75409;BME280;63979;55.644;37.734;2022-10-31T01:58:11;98513.22;;;1.34;63.23
75409;BME280;63979;55.644;37.734;2022-10-31T02:03:12;98515.56;;;1.23;65.05
75409;BME280;63979;55.644;37.734;2022-10-31T02:13:19;98527.25;;;1.17;66.98
75409;BME280;63979;55.644;37.734;2022-10-31T02:18:23;98529.88;;;1.17;67.28
75409;BME280;63979;55.644;37.734;2022-10-31T02:29:10;98481.22;;;0.76;68.81
75409;BME280;63979;55.644;37.734;2022-10-31T02:34:34;98527.72;;;1.08;69.78
75409;BME280;63979;55.644;37.734;2022-10-31T02:45:01;98526.53;;;0.97;71.86
75409;BME280;63979;55.644;37.734;2022-10-31T02:50:21;98530.72;;;0.83;72.64
75409;BME280;63979;55.644;37.734;2022-10-31T03:00:29;98525.25;;;0.71;74.56
75409;BME280;63979;55.644;37.734;2022-10-31T03:11:03;98535.88;;;0.68;75.35
75409;BME280;63979;55.644;37.734;2022-10-31T03:16:26;98528.72;;;0.71;75.98
75409;BME280;63979;55.644;37.734;2022-10-31T03:26:49;98535.88;;;0.68;75.03
75409;BME280;63979;55.644;37.734;2022-10-31T03:31:58;98517.72;;;0.63;74.70
75409;BME280;63979;55.644;37.734;2022-10-31T03:37:03;98529.16;;;0.62;74.02
75409;BME280;63979;55.644;37.734;2022-10-31T03:47:09;98479.56;;;0.39;71.78
75409;BME280;63979;55.644;37.734;2022-10-31T03:57:40;98530.81;;;0.82;71.79
75409;BME280;63979;55.644;37.734;2022-10-31T04:03:09;98546.19;;;0.72;72.85
75409;BME280;63979;55.644;37.734;2022-10-31T04:08:20;98551.28;;;0.75;72.80
75409;BME280;63979;55.644;37.734;2022-10-31T04:13:28;98542.97;;;0.66;74.13
75409;BME280;63979;55.644;37.734;2022-10-31T04:18:30;98553.47;;;0.66;73.31
75409;BME280;63979;55.644;37.734;2022-10-31T04:23:32;98566.34;;;0.72;74.16
75409;BME280;63979;55.644;37.734;2022-10-31T04:28:34;98570.22;;;0.63;73.97
75409;BME280;63979;55.644;37.734;2022-10-31T04:33:35;98564.06;;;0.64;73.64
75409;BME280;63979;55.644;37.734;2022-10-31T04:38:36;98578.47;;;0.74;73.75
75409;BME280;63979;55.644;37.734;2022-10-31T04:43:37;98567.38;;;0.68;73.47
75409;BME280;63979;55.644;37.734;2022-10-31T04:48:38;98593.28;;;0.75;74.11
75409;BME280;63979;55.644;37.734;2022-10-31T04:53:39;98576.75;;;0.73;72.72
75409;BME280;63979;55.644;37.734;2022-10-31T04:58:40;98576.75;;;0.73;72.93
75409;BME280;63979;55.644;37.734;2022-10-31T05:03:41;98596.47;;;0.82;72.78
75409;BME280;63979;55.644;37.734;2022-10-31T05:08:42;98606.28;;;0.96;72.55
75409;BME280;63979;55.644;37.734;2022-10-31T05:13:44;98602.06;;;1.10;72.49
75409;BME280;63979;55.644;37.734;2022-10-31T05:18:45;98620.59;;;1.07;71.21
75409;BME280;63979;55.644;37.734;2022-10-31T05:23:46;98625.94;;;1.06;71.42
75409;BME280;63979;55.644;37.734;2022-10-31T05:28:48;98608.81;;;0.97;71.14
75409;BME280;63979;55.644;37.734;2022-10-31T05:33:49;98613.88;;;1.19;70.97
75409;BME280;63979;55.644;37.734;2022-10-31T05:38:50;98653.22;;;1.20;70.95
75409;BME280;63979;55.644;37.734;2022-10-31T05:43:51;98624.06;;;1.25;70.67
75409;BME280;63979;55.644;37.734;2022-10-31T05:48:52;98653.38;;;1.35;70.13
75409;BME280;63979;55.644;37.734;2022-10-31T05:53:53;98674.66;;;1.47;70.08
75409;BME280;63979;55.644;37.734;2022-10-31T05:58:54;98673.34;;;1.56;70.38
75409;BME280;63979;55.644;37.734;2022-10-31T06:03:55;98697.88;;;1.74;71.70
75409;BME280;63979;55.644;37.734;2022-10-31T06:08:56;98696.47;;;1.84;70.79
75409;BME280;63979;55.644;37.734;2022-10-31T06:13:57;98706.53;;;1.76;70.10
75409;BME280;63979;55.644;37.734;2022-10-31T06:18:57;98721.69;;;1.88;70.62
75409;BME280;63979;55.644;37.734;2022-10-31T06:23:58;98728.81;;;1.86;70.85
75409;BME280;63979;55.644;37.734;2022-10-31T06:28:59;98688.50;;;1.68;70.97
75409;BME280;63979;55.644;37.734;2022-10-31T06:34:00;98766.38;;;2.05;71.67
75409;BME280;63979;55.644;37.734;2022-10-31T06:39:01;98765.78;;;2.00;71.44
75409;BME280;63979;55.644;37.734;2022-10-31T06:44:03;98799.47;;;2.11;72.31
75409;BME280;63979;55.644;37.734;2022-10-31T06:49:03;98748.91;;;2.04;71.70
75409;BME280;63979;55.644;37.734;2022-10-31T06:54:04;98796.25;;;2.39;70.58
75409;BME280;63979;55.644;37.734;2022-10-31T06:59:05;98771.16;;;2.49;70.52
75409;BME280;63979;55.644;37.734;2022-10-31T07:04:09;98831.25;;;3.07;69.30
75409;BME280;63979;55.644;37.734;2022-10-31T07:09:10;98810.88;;;3.26;68.26
75409;BME280;63979;55.644;37.734;2022-10-31T07:14:11;98798.81;;;3.22;68.24
75409;BME280;63979;55.644;37.734;2022-10-31T07:19:12;98839.97;;;3.72;66.66
75409;BME280;63979;55.644;37.734;2022-10-31T07:24:13;98858.84;;;3.80;66.76
75409;BME280;63979;55.644;37.734;2022-10-31T07:29:13;98874.38;;;3.86;66.46
75409;BME280;63979;55.644;37.734;2022-10-31T07:34:15;98892.56;;;3.75;66.17
75409;BME280;63979;55.644;37.734;2022-10-31T07:39:16;98906.34;;;3.80;66.65
75409;BME280;63979;55.644;37.734;2022-10-31T07:44:17;98913.69;;;3.59;66.50
75409;BME280;63979;55.644;37.734;2022-10-31T07:49:18;98939.66;;;3.98;66.79
75409;BME280;63979;55.644;37.734;2022-10-31T07:54:19;98954.06;;;4.24;65.19
75409;BME280;63979;55.644;37.734;2022-10-31T07:59:20;98947.69;;;4.58;64.12
75409;BME280;63979;55.644;37.734;2022-10-31T08:04:21;98954.47;;;7.00;57.18
75409;BME280;63979;55.644;37.734;2022-10-31T08:09:23;98959.31;;;13.69;39.87
75409;BME280;63979;55.644;37.734;2022-10-31T08:14:24;98967.56;;;15.39;36.98
75409;BME280;63979;55.644;37.734;2022-10-31T08:19:25;98976.84;;;12.67;39.32
75409;BME280;63979;55.644;37.734;2022-10-31T08:24:26;99005.41;;;10.50;45.39
75409;BME280;63979;55.644;37.734;2022-10-31T08:29:27;99015.31;;;8.54;51.69
75409;BME280;63979;55.644;37.734;2022-10-31T08:34:28;99031.69;;;8.11;53.90
75409;BME280;63979;55.644;37.734;2022-10-31T08:39:29;99033.03;;;7.15;55.70
75409;BME280;63979;55.644;37.734;2022-10-31T08:44:30;98991.41;;;6.36;58.34
75409;BME280;63979;55.644;37.734;2022-10-31T08:49:31;99063.47;;;6.29;58.80
75409;BME280;63979;55.644;37.734;2022-10-31T08:54:32;99075.28;;;6.23;57.18
75409;BME280;63979;55.644;37.734;2022-10-31T08:59:34;99012.50;;;5.97;57.91
75409;BME280;63979;55.644;37.734;2022-10-31T09:04:34;99071.41;;;6.14;57.68
75409;BME280;63979;55.644;37.734;2022-10-31T09:09:35;99071.88;;;5.78;55.71
75409;BME280;63979;55.644;37.734;2022-10-31T09:14:36;99078.91;;;5.93;55.10
75409;BME280;63979;55.644;37.734;2022-10-31T09:19:37;99096.81;;;5.88;54.67
75409;BME280;63979;55.644;37.734;2022-10-31T09:24:38;99078.84;;;5.65;53.49
75409;BME280;63979;55.644;37.734;2022-10-31T09:29:39;99100.59;;;5.70;54.62
75409;BME280;63979;55.644;37.734;2022-10-31T09:34:40;99109.59;;;5.68;56.08
75409;BME280;63979;55.644;37.734;2022-10-31T09:39:41;99107.88;;;5.67;55.65
75409;BME280;63979;55.644;37.734;2022-10-31T09:50:22;99099.47;;;5.30;55.89
75409;BME280;63979;55.644;37.734;2022-10-31T09:55:41;99132.25;;;6.44;51.31
75409;BME280;63979;55.644;37.734;2022-10-31T10:01:03;99142.97;;;6.43;52.90
75409;BME280;63979;55.644;37.734;2022-10-31T10:06:23;99174.88;;;7.24;51.10
75409;BME280;63979;55.644;37.734;2022-10-31T10:11:34;99134.56;;;7.71;48.24
75409;BME280;63979;55.644;37.734;2022-10-31T10:27:39;99210.38;;;6.24;54.56
75409;BME280;63979;55.644;37.734;2022-10-31T10:32:46;99173.50;;;5.91;55.80
75409;BME280;63979;55.644;37.734;2022-10-31T10:37:52;99237.91;;;6.79;54.28
75409;BME280;63979;55.644;37.734;2022-10-31T10:43:24;99231.81;;;6.91;54.54
75409;BME280;63979;55.644;37.734;2022-10-31T10:48:55;99227.44;;;5.90;56.98
75409;BME280;63979;55.644;37.734;2022-10-31T10:59:38;99242.22;;;6.09;57.67
75409;BME280;63979;55.644;37.734;2022-10-31T11:04:40;99237.72;;;6.25;56.06
75409;BME280;63979;55.644;37.734;2022-10-31T11:09:41;99234.53;;;6.04;55.60
75409;BME280;63979;55.644;37.734;2022-10-31T11:14:49;99224.94;;;5.42;55.99
75409;BME280;63979;55.644;37.734;2022-10-31T11:20:03;99207.91;;;5.00;56.24
75409;BME280;63979;55.644;37.734;2022-10-31T11:25:24;99244.25;;;4.96;58.78
75409;BME280;63979;55.644;37.734;2022-10-31T11:30:25;99254.47;;;4.87;58.61
75409;BME280;63979;55.644;37.734;2022-10-31T11:35:27;99243.50;;;4.61;60.06
75409;BME280;63979;55.644;37.734;2022-10-31T11:40:29;99251.03;;;4.69;60.51
75409;BME280;63979;55.644;37.734;2022-10-31T11:45:33;99257.53;;;4.46;60.49
75409;BME280;63979;55.644;37.734;2022-10-31T11:50:40;99255.03;;;4.43;61.10
75409;BME280;63979;55.644;37.734;2022-10-31T11:55:41;99263.88;;;4.26;60.92
75409;BME280;63979;55.644;37.734;2022-10-31T12:00:49;99267.34;;;4.27;61.49
75409;BME280;63979;55.644;37.734;2022-10-31T12:06:03;99238.94;;;3.97;61.26
75409;BME280;63979;55.644;37.734;2022-10-31T12:16:39;99282.28;;;4.28;61.31
75409;BME280;63979;55.644;37.734;2022-10-31T12:27:30;99293.91;;;4.06;62.58
75409;BME280;63979;55.644;37.734;2022-10-31T12:43:52;99303.13;;;3.81;66.54
75409;BME280;63979;55.644;37.734;2022-10-31T12:59:56;99304.66;;;3.50;68.45
75409;BME280;63979;55.644;37.734;2022-10-31T13:15:27;99273.00;;;3.31;67.85
75409;BME280;63979;55.644;37.734;2022-10-31T13:20:33;99292.66;;;3.43;68.06
75409;BME280;63979;55.644;37.734;2022-10-31T13:25:41;99309.00;;;3.51;67.77
75409;BME280;63979;55.644;37.734;2022-10-31T13:30:44;99347.16;;;3.80;67.70
75409;BME280;63979;55.644;37.734;2022-10-31T13:41:20;99370.91;;;3.80;66.85
75409;BME280;63979;55.644;37.734;2022-10-31T13:46:37;99338.84;;;3.70;66.62
75409;BME280;63979;55.644;37.734;2022-10-31T13:51:39;99335.97;;;3.75;66.92
75409;BME280;63979;55.644;37.734;2022-10-31T13:56:40;99364.91;;;3.95;66.20
75409;BME280;63979;55.644;37.734;2022-10-31T14:01:53;99368.41;;;3.96;66.19
75409;BME280;63979;55.644;37.734;2022-10-31T14:07:16;99382.00;;;4.05;66.16
75409;BME280;63979;55.644;37.734;2022-10-31T14:12:37;99391.63;;;4.06;66.28
75409;BME280;63979;55.644;37.734;2022-10-31T14:17:47;99394.28;;;4.06;67.06
75409;BME280;63979;55.644;37.734;2022-10-31T14:22:49;99376.16;;;3.99;66.24
75409;BME280;63979;55.644;37.734;2022-10-31T14:27:50;99391.63;;;4.06;66.31
75409;BME280;63979;55.644;37.734;2022-10-31T14:32:56;99422.38;;;4.07;66.03
75409;BME280;63979;55.644;37.734;2022-10-31T14:54:01;99445.94;;;4.12;66.28
75409;BME280;63979;55.644;37.734;2022-10-31T14:59:15;99396.38;;;3.81;66.54
75409;BME280;63979;55.644;37.734;2022-10-31T15:04:20;99401.09;;;3.74;66.07
75409;BME280;63979;55.644;37.734;2022-10-31T15:09:31;99457.66;;;4.06;66.41
75409;BME280;63979;55.644;37.734;2022-10-31T15:14:32;99464.78;;;4.04;66.47
75409;BME280;63979;55.644;37.734;2022-10-31T15:19:34;99461.22;;;4.05;66.24
75409;BME280;63979;55.644;37.734;2022-10-31T15:24:38;99471.38;;;3.96;66.33
75409;BME280;63979;55.644;37.734;2022-10-31T15:29:54;99482.41;;;4.04;65.89
75409;BME280;63979;55.644;37.734;2022-10-31T15:34:56;99480.94;;;3.98;65.57
75409;BME280;63979;55.644;37.734;2022-10-31T15:40:06;99467.66;;;3.81;65.98
75409;BME280;63979;55.644;37.734;2022-10-31T15:45:16;99477.09;;;3.87;65.59
75409;BME280;63979;55.644;37.734;2022-10-31T15:50:35;99514.19;;;3.84;65.94
75409;BME280;63979;55.644;37.734;2022-10-31T15:55:48;99528.13;;;3.87;66.10
75409;BME280;63979;55.644;37.734;2022-10-31T16:01:03;99495.34;;;3.91;66.52
75409;BME280;63979;55.644;37.734;2022-10-31T16:06:04;99517.31;;;3.73;66.40
75409;BME280;63979;55.644;37.734;2022-10-31T16:16:15;99533.84;;;3.76;66.17
75409;BME280;63979;55.644;37.734;2022-10-31T16:21:27;99553.97;;;3.79;66.49
75409;BME280;63979;55.644;37.734;2022-10-31T16:26:29;99560.72;;;3.86;66.73
75409;BME280;63979;55.644;37.734;2022-10-31T16:31:37;99564.28;;;3.85;66.40
75409;BME280;63979;55.644;37.734;2022-10-31T16:36:38;99574.56;;;3.91;66.38
75409;BME280;63979;55.644;37.734;2022-10-31T16:41:41;99593.31;;;3.85;65.84
75409;BME280;63979;55.644;37.734;2022-10-31T16:46:43;99572.72;;;3.73;66.27
75409;BME280;63979;55.644;37.734;2022-10-31T16:51:44;99524.38;;;3.33;65.68
75409;BME280;63979;55.644;37.734;2022-10-31T16:56:46;99615.03;;;3.71;66.12
75409;BME280;63979;55.644;37.734;2022-10-31T17:01:48;99598.06;;;3.77;66.15
75409;BME280;63979;55.644;37.734;2022-10-31T17:06:49;99594.00;;;3.70;65.75
75409;BME280;63979;55.644;37.734;2022-10-31T17:11:51;99608.44;;;3.82;65.31
75409;BME280;63979;55.644;37.734;2022-10-31T17:16:53;99606.97;;;3.74;65.97
75409;BME280;63979;55.644;37.734;2022-10-31T17:21:54;99584.00;;;3.58;66.31
75409;BME280;63979;55.644;37.734;2022-10-31T17:26:55;99632.84;;;3.87;66.05
75409;BME280;63979;55.644;37.734;2022-10-31T17:31:57;99589.34;;;3.56;65.73
75409;BME280;63979;55.644;37.734;2022-10-31T17:36:58;99585.34;;;3.46;66.18
75409;BME280;63979;55.644;37.734;2022-10-31T17:41:59;99622.69;;;3.78;65.88
75409;BME280;63979;55.644;37.734;2022-10-31T17:47:00;99581.69;;;3.50;65.29
75409;BME280;63979;55.644;37.734;2022-10-31T17:52:02;99651.84;;;3.74;65.41
75409;BME280;63979;55.644;37.734;2022-10-31T17:57:08;99660.84;;;3.70;66.06
75409;BME280;63979;55.644;37.734;2022-10-31T18:02:12;99650.41;;;3.67;65.89
75409;BME280;63979;55.644;37.734;2022-10-31T18:07:13;99662.22;;;3.59;66.07
75409;BME280;63979;55.644;37.734;2022-10-31T18:12:19;99693.22;;;3.74;66.01
75409;BME280;63979;55.644;37.734;2022-10-31T18:17:20;99690.66;;;3.72;65.43
75409;BME280;63979;55.644;37.734;2022-10-31T18:22:21;99686.22;;;3.73;65.35
75409;BME280;63979;55.644;37.734;2022-10-31T18:27:22;99699.75;;;3.65;65.17
75409;BME280;63979;55.644;37.734;2022-10-31T18:32:24;99711.03;;;3.69;64.85
75409;BME280;63979;55.644;37.734;2022-10-31T18:37:28;99704.84;;;3.70;64.82
75409;BME280;63979;55.644;37.734;2022-10-31T18:42:30;99702.34;;;3.67;64.94
75409;BME280;63979;55.644;37.734;2022-10-31T18:47:31;99717.72;;;3.78;65.17
75409;BME280;63979;55.644;37.734;2022-10-31T18:52:32;99736.03;;;3.82;65.04
75409;BME280;63979;55.644;37.734;2022-10-31T18:57:34;99726.50;;;3.78;65.39
75409;BME280;63979;55.644;37.734;2022-10-31T19:02:35;99686.25;;;3.53;64.95
75409;BME280;63979;55.644;37.734;2022-10-31T19:07:37;99742.84;;;3.66;65.09
75409;BME280;63979;55.644;37.734;2022-10-31T19:12:38;99690.28;;;3.39;65.50
75409;BME280;63979;55.644;37.734;2022-10-31T19:17:39;99749.13;;;3.63;65.88
75409;BME280;63979;55.644;37.734;2022-10-31T19:22:40;99761.38;;;3.64;65.49
75409;BME280;63979;55.644;37.734;2022-10-31T19:27:41;99749.84;;;3.67;65.61
75409;BME280;63979;55.644;37.734;2022-10-31T19:32:42;99766.72;;;3.85;65.45
75409;BME280;63979;55.644;37.734;2022-10-31T19:37:43;99758.22;;;3.76;65.00
75409;BME280;63979;55.644;37.734;2022-10-31T19:42:44;99772.69;;;3.68;65.02
75409;BME280;63979;55.644;37.734;2022-10-31T19:47:45;99784.69;;;3.75;65.07
75409;BME280;63979;55.644;37.734;2022-10-31T19:52:46;99787.97;;;3.60;65.04
75409;BME280;63979;55.644;37.734;2022-10-31T19:57:47;99788.97;;;3.57;64.86
75409;BME280;63979;55.644;37.734;2022-10-31T20:02:48;99806.50;;;3.58;64.07
75409;BME280;63979;55.644;37.734;2022-10-31T20:07:49;99807.91;;;3.45;64.88
75409;BME280;63979;55.644;37.734;2022-10-31T20:12:50;99811.31;;;3.49;64.61
75409;BME280;63979;55.644;37.734;2022-10-31T20:17:51;99739.78;;;3.11;64.43
75409;BME280;63979;55.644;37.734;2022-10-31T20:22:51;99814.16;;;3.42;64.60
75409;BME280;63979;55.644;37.734;2022-10-31T20:27:53;99830.78;;;3.44;64.34
75409;BME280;63979;55.644;37.734;2022-10-31T20:32:54;99834.94;;;3.52;64.42
75409;BME280;63979;55.644;37.734;2022-10-31T20:37:55;99780.50;;;3.27;64.80
75409;BME280;63979;55.644;37.734;2022-10-31T20:42:56;99843.66;;;3.54;63.97
75409;BME280;63979;55.644;37.734;2022-10-31T20:47:57;99847.31;;;3.50;63.94
75409;BME280;63979;55.644;37.734;2022-10-31T20:52:59;99810.72;;;3.19;64.60
75409;BME280;63979;55.644;37.734;2022-10-31T20:58:01;99864.03;;;3.50;64.83
75409;BME280;63979;55.644;37.734;2022-10-31T21:03:01;99857.28;;;3.41;65.06
75409;BME280;63979;55.644;37.734;2022-10-31T21:08:03;99862.69;;;3.38;65.42
75409;BME280;63979;55.644;37.734;2022-10-31T21:13:03;99875.03;;;3.38;65.44
75409;BME280;63979;55.644;37.734;2022-10-31T21:18:05;99871.72;;;3.33;65.09
75409;BME280;63979;55.644;37.734;2022-10-31T21:23:06;99881.41;;;3.32;65.04
75409;BME280;63979;55.644;37.734;2022-10-31T21:28:08;99876.47;;;3.23;65.40
75409;BME280;63979;55.644;37.734;2022-10-31T21:33:09;99883.72;;;3.18;65.63
75409;BME280;63979;55.644;37.734;2022-10-31T21:38:10;99878.00;;;3.05;64.80
75409;BME280;63979;55.644;37.734;2022-10-31T21:43:11;99898.44;;;3.24;64.98
75409;BME280;63979;55.644;37.734;2022-10-31T21:48:13;99871.31;;;2.97;64.66
75409;BME280;63979;55.644;37.734;2022-10-31T21:53:13;99901.88;;;3.26;64.15
75409;BME280;63979;55.644;37.734;2022-10-31T21:58:33;99916.09;;;3.22;63.25
75409;BME280;63979;55.644;37.734;2022-10-31T22:03:35;99923.28;;;3.18;63.63
75409;BME280;63979;55.644;37.734;2022-10-31T22:08:37;99885.28;;;2.99;64.03
75409;BME280;63979;55.644;37.734;2022-10-31T22:13:40;99919.34;;;3.05;64.58
75409;BME280;63979;55.644;37.734;2022-10-31T22:18:42;99934.53;;;2.98;64.77
75409;BME280;63979;55.644;37.734;2022-10-31T22:23:48;99932.06;;;2.94;64.82
75409;BME280;63979;55.644;37.734;2022-10-31T22:28:54;99931.66;;;3.04;64.78
75409;BME280;63979;55.644;37.734;2022-10-31T22:33:55;99951.97;;;3.02;64.96
75409;BME280;63979;55.644;37.734;2022-10-31T22:38:57;99934.31;;;3.04;64.82
75409;BME280;63979;55.644;37.734;2022-10-31T22:43:59;99938.19;;;2.94;64.19
75409;BME280;63979;55.644;37.734;2022-10-31T22:49:12;99949.50;;;2.98;64.29
75409;BME280;63979;55.644;37.734;2022-10-31T22:54:16;99965.19;;;3.01;64.45
75409;BME280;63979;55.644;37.734;2022-10-31T22:59:17;99951.09;;;3.02;64.05
75409;BME280;63979;55.644;37.734;2022-10-31T23:04:21;99961.91;;;2.94;64.09
75409;BME280;63979;55.644;37.734;2022-10-31T23:09:22;99947.06;;;2.92;63.59
75409;BME280;63979;55.644;37.734;2022-10-31T23:14:23;99962.84;;;2.93;63.78
75409;BME280;63979;55.644;37.734;2022-10-31T23:19:26;99959.66;;;2.84;63.43
75409;BME280;63979;55.644;37.734;2022-10-31T23:24:42;99974.34;;;2.91;63.06
75409;BME280;63979;55.644;37.734;2022-10-31T23:29:55;99964.66;;;2.91;63.64
75409;BME280;63979;55.644;37.734;2022-10-31T23:35:14;99985.00;;;2.88;63.33
75409;BME280;63979;55.644;37.734;2022-10-31T23:40:15;99971.22;;;2.79;63.44
75409;BME280;63979;55.644;37.734;2022-10-31T23:45:16;99992.25;;;2.81;62.90
75409;BME280;63979;55.644;37.734;2022-10-31T23:50:17;99994.75;;;2.86;64.03
75409;BME280;63979;55.644;37.734;2022-10-31T23:55:18;99992.44;;;2.75;64.47
